sensor_id;sensor_type;location;lat;lon;timestamp;pressure;altitude;pressure_sealevel;temperature
76541;BMP280;65385;55.772;37.658;2023-02-07T00:00:48;101501.03;;;-4.91
76541;BMP280;65385;55.772;37.658;2023-02-07T00:01:49;101503.59;;;-4.91
76541;BMP280;65385;55.772;37.658;2023-02-07T00:02:49;101499.16;;;-4.89
76541;BMP280;65385;55.772;37.658;2023-02-07T00:03:50;101504.16;;;-4.88
76541;BMP280;65385;55.772;37.658;2023-02-07T00:04:51;101493.78;;;-4.84
76541;BMP280;65385;55.772;37.658;2023-02-07T00:05:52;101488.56;;;-4.83
76541;BMP280;65385;55.772;37.658;2023-02-07T00:06:52;101495.16;;;-4.80
76541;BMP280;65385;55.772;37.658;2023-02-07T00:07:53;101492.50;;;-4.79
76541;BMP280;65385;55.772;37.658;2023-02-07T00:08:55;101493.31;;;-4.78
76541;BMP280;65385;55.772;37.658;2023-02-07T00:09:56;101493.13;;;-4.75
76541;BMP280;65385;55.772;37.658;2023-02-07T00:10:56;101493.84;;;-4.73
76541;BMP280;65385;55.772;37.658;2023-02-07T00:11:57;101499.66;;;-4.71
76541;BMP280;65385;55.772;37.658;2023-02-07T00:12:57;101497.09;;;-4.71
76541;BMP280;65385;55.772;37.658;2023-02-07T00:13:59;101498.63;;;-4.69
76541;BMP280;65385;55.772;37.658;2023-02-07T00:14:59;101506.16;;;-4.67
76541;BMP280;65385;55.772;37.658;2023-02-07T00:16:01;101511.16;;;-4.66
76541;BMP280;65385;55.772;37.658;2023-02-07T00:17:02;101506.16;;;-4.67
76541;BMP280;65385;55.772;37.658;2023-02-07T00:18:02;101510.25;;;-4.65
76541;BMP280;65385;55.772;37.658;2023-02-07T00:19:03;101505.13;;;-4.65
76541;BMP280;65385;55.772;37.658;2023-02-07T00:20:04;101507.78;;;-4.66
76541;BMP280;65385;55.772;37.658;2023-02-07T00:21:07;101512.06;;;-4.67
76541;BMP280;65385;55.772;37.658;2023-02-07T00:22:08;101526.56;;;-4.67
76541;BMP280;65385;55.772;37.658;2023-02-07T00:23:09;101521.47;;;-4.67
76541;BMP280;65385;55.772;37.658;2023-02-07T00:24:09;101521.47;;;-4.67
76541;BMP280;65385;55.772;37.658;2023-02-07T00:25:10;101521.69;;;-4.70
76541;BMP280;65385;55.772;37.658;2023-02-07T00:26:12;101521.91;;;-4.73
76541;BMP280;65385;55.772;37.658;2023-02-07T00:27:16;101510.16;;;-4.76
76541;BMP280;65385;55.772;37.658;2023-02-07T00:28:17;101516.28;;;-4.78
76541;BMP280;65385;55.772;37.658;2023-02-07T00:29:18;101513.84;;;-4.80
76541;BMP280;65385;55.772;37.658;2023-02-07T00:30:19;101507.91;;;-4.80
76541;BMP280;65385;55.772;37.658;2023-02-07T00:31:22;101505.38;;;-4.80
76541;BMP280;65385;55.772;37.658;2023-02-07T00:32:23;101500.38;;;-4.82
76541;BMP280;65385;55.772;37.658;2023-02-07T00:33:23;101502.13;;;-4.82
76541;BMP280;65385;55.772;37.658;2023-02-07T00:34:24;101501.41;;;-4.84
76541;BMP280;65385;55.772;37.658;2023-02-07T00:35:24;101500.69;;;-4.86
76541;BMP280;65385;55.772;37.658;2023-02-07T00:36:27;101504.16;;;-4.88
76541;BMP280;65385;55.772;37.658;2023-02-07T00:37:29;101498.25;;;-4.88
76541;BMP280;65385;55.772;37.658;2023-02-07T00:38:30;101504.28;;;-4.89
76541;BMP280;65385;55.772;37.658;2023-02-07T00:39:30;101504.41;;;-4.91
76541;BMP280;65385;55.772;37.658;2023-02-07T00:40:31;101509.50;;;-4.91
76541;BMP280;65385;55.772;37.658;2023-02-07T00:41:31;101510.41;;;-4.92
76541;BMP280;65385;55.772;37.658;2023-02-07T00:42:33;101507.03;;;-4.92
76541;BMP280;65385;55.772;37.658;2023-02-07T00:43:34;101512.06;;;-4.91
76541;BMP280;65385;55.772;37.658;2023-02-07T00:44:34;101513.56;;;-4.88
76541;BMP280;65385;55.772;37.658;2023-02-07T00:45:36;101512.75;;;-4.89
76541;BMP280;65385;55.772;37.658;2023-02-07T00:46:37;101508.56;;;-4.90
76541;BMP280;65385;55.772;37.658;2023-02-07T00:47:38;101519.47;;;-4.88
76541;BMP280;65385;55.772;37.658;2023-02-07T00:48:38;101523.56;;;-4.85
76541;BMP280;65385;55.772;37.658;2023-02-07T00:49:41;101519.28;;;-4.84
76541;BMP280;65385;55.772;37.658;2023-02-07T00:50:42;101521.09;;;-4.86
76541;BMP280;65385;55.772;37.658;2023-02-07T00:51:43;101516.22;;;-4.90
76541;BMP280;65385;55.772;37.658;2023-02-07T00:52:43;101512.06;;;-4.91
76541;BMP280;65385;55.772;37.658;2023-02-07T00:53:44;101519.69;;;-4.91
76541;BMP280;65385;55.772;37.658;2023-02-07T00:54:45;101512.22;;;-4.94
76541;BMP280;65385;55.772;37.658;2023-02-07T00:55:46;101516.50;;;-4.94
76541;BMP280;65385;55.772;37.658;2023-02-07T00:56:46;101516.59;;;-4.96
76541;BMP280;65385;55.772;37.658;2023-02-07T00:57:47;101515.78;;;-4.96
76541;BMP280;65385;55.772;37.658;2023-02-07T00:58:48;101518.34;;;-4.96
76541;BMP280;65385;55.772;37.658;2023-02-07T00:59:49;101520.88;;;-4.96
76541;BMP280;65385;55.772;37.658;2023-02-07T01:00:49;101521.69;;;-4.96
76541;BMP280;65385;55.772;37.658;2023-02-07T01:01:50;101528.44;;;-4.95
76541;BMP280;65385;55.772;37.658;2023-02-07T01:02:50;101519.88;;;-4.94
76541;BMP280;65385;55.772;37.658;2023-02-07T01:03:51;101528.28;;;-4.92
76541;BMP280;65385;55.772;37.658;2023-02-07T01:04:52;101527.34;;;-4.91
76541;BMP280;65385;55.772;37.658;2023-02-07T01:05:53;101527.75;;;-4.84
76541;BMP280;65385;55.772;37.658;2023-02-07T01:06:53;101523.47;;;-4.83
76541;BMP280;65385;55.772;37.658;2023-02-07T01:07:53;101533.66;;;-4.83
76541;BMP280;65385;55.772;37.658;2023-02-07T01:08:58;101526.81;;;-4.83
76541;BMP280;65385;55.772;37.658;2023-02-07T01:10:01;101524.16;;;-4.81
76541;BMP280;65385;55.772;37.658;2023-02-07T01:11:04;101528.31;;;-4.80
76541;BMP280;65385;55.772;37.658;2023-02-07T01:12:05;101530.78;;;-4.79
76541;BMP280;65385;55.772;37.658;2023-02-07T01:13:06;101534.03;;;-4.77
76541;BMP280;65385;55.772;37.658;2023-02-07T01:14:07;101533.00;;;-4.74
76541;BMP280;65385;55.772;37.658;2023-02-07T01:15:07;101531.19;;;-4.72
76541;BMP280;65385;55.772;37.658;2023-02-07T01:16:31;101536.09;;;-4.69
76541;BMP280;65385;55.772;37.658;2023-02-07T01:17:33;101535.84;;;-4.66
76541;BMP280;65385;55.772;37.658;2023-02-07T01:18:33;101530.66;;;-4.65
76541;BMP280;65385;55.772;37.658;2023-02-07T01:19:35;101530.06;;;-4.68
76541;BMP280;65385;55.772;37.658;2023-02-07T01:20:36;101535.16;;;-4.68
76541;BMP280;65385;55.772;37.658;2023-02-07T01:21:38;101531.66;;;-4.67
76541;BMP280;65385;55.772;37.658;2023-02-07T01:22:39;101535.97;;;-4.68
76541;BMP280;65385;55.772;37.658;2023-02-07T01:23:40;101537.72;;;-4.68
76541;BMP280;65385;55.772;37.658;2023-02-07T01:24:41;101544.66;;;-4.70
76541;BMP280;65385;55.772;37.658;2023-02-07T01:25:42;101542.09;;;-4.70
76541;BMP280;65385;55.772;37.658;2023-02-07T01:26:45;101533.53;;;-4.69
76541;BMP280;65385;55.772;37.658;2023-02-07T01:27:48;101537.00;;;-4.70
76541;BMP280;65385;55.772;37.658;2023-02-07T01:28:48;101528.44;;;-4.69
76541;BMP280;65385;55.772;37.658;2023-02-07T01:29:49;101530.84;;;-4.68
76541;BMP280;65385;55.772;37.658;2023-02-07T01:30:50;101535.16;;;-4.68
76541;BMP280;65385;55.772;37.658;2023-02-07T01:31:50;101535.84;;;-4.66
76541;BMP280;65385;55.772;37.658;2023-02-07T01:32:52;101526.28;;;-4.63
76541;BMP280;65385;55.772;37.658;2023-02-07T01:33:54;101532.38;;;-4.65
76541;BMP280;65385;55.772;37.658;2023-02-07T01:34:55;101533.31;;;-4.66
76541;BMP280;65385;55.772;37.658;2023-02-07T01:35:55;101537.59;;;-4.67
76541;BMP280;65385;55.772;37.658;2023-02-07T01:36:56;101539.22;;;-4.66
76541;BMP280;65385;55.772;37.658;2023-02-07T01:37:56;101534.13;;;-4.66
76541;BMP280;65385;55.772;37.658;2023-02-07T01:38:58;101534.94;;;-4.65
76541;BMP280;65385;55.772;37.658;2023-02-07T01:39:59;101544.22;;;-4.64
76541;BMP280;65385;55.772;37.658;2023-02-07T01:41:01;101543.31;;;-4.63
76541;BMP280;65385;55.772;37.658;2023-02-07T01:42:02;101548.41;;;-4.63
76541;BMP280;65385;55.772;37.658;2023-02-07T01:43:02;101539.94;;;-4.64
76541;BMP280;65385;55.772;37.658;2023-02-07T01:45:36;101545.75;;;-4.62
76541;BMP280;65385;55.772;37.658;2023-02-07T01:46:38;101542.50;;;-4.64
76541;BMP280;65385;55.772;37.658;2023-02-07T01:47:38;101556.88;;;-4.63
76541;BMP280;65385;55.772;37.658;2023-02-07T01:48:39;101551.97;;;-4.66
76541;BMP280;65385;55.772;37.658;2023-02-07T01:49:40;101553.72;;;-4.66
76541;BMP280;65385;55.772;37.658;2023-02-07T01:50:44;101554.53;;;-4.66
76541;BMP280;65385;55.772;37.658;2023-02-07T01:51:49;101558.81;;;-4.66
76541;BMP280;65385;55.772;37.658;2023-02-07T01:52:52;101560.34;;;-4.64
76541;BMP280;65385;55.772;37.658;2023-02-07T01:53:55;101556.97;;;-4.64
76541;BMP280;65385;55.772;37.658;2023-02-07T01:55:01;101556.97;;;-4.64
76541;BMP280;65385;55.772;37.658;2023-02-07T01:56:05;101559.53;;;-4.64
76541;BMP280;65385;55.772;37.658;2023-02-07T01:57:11;101560.25;;;-4.62
76541;BMP280;65385;55.772;37.658;2023-02-07T01:58:13;101557.81;;;-4.64
76541;BMP280;65385;55.772;37.658;2023-02-07T01:59:14;101559.44;;;-4.63
76541;BMP280;65385;55.772;37.658;2023-02-07T02:00:55;101564.03;;;-4.55
76541;BMP280;65385;55.772;37.658;2023-02-07T02:02:04;101571.97;;;-4.60
76541;BMP280;65385;55.772;37.658;2023-02-07T02:03:05;101578.94;;;-4.62
76541;BMP280;65385;55.772;37.658;2023-02-07T02:04:06;101577.19;;;-4.61
76541;BMP280;65385;55.772;37.658;2023-02-07T02:05:09;101573.81;;;-4.62
76541;BMP280;65385;55.772;37.658;2023-02-07T02:06:10;101581.59;;;-4.63
76541;BMP280;65385;55.772;37.658;2023-02-07T02:07:12;101569.75;;;-4.64
76541;BMP280;65385;55.772;37.658;2023-02-07T02:08:13;101574.94;;;-4.66
76541;BMP280;65385;55.772;37.658;2023-02-07T02:09:15;101567.63;;;-4.70
76541;BMP280;65385;55.772;37.658;2023-02-07T02:10:20;101576.00;;;-4.68
76541;BMP280;65385;55.772;37.658;2023-02-07T02:14:15;101574.63;;;-4.74
76541;BMP280;65385;55.772;37.658;2023-02-07T02:18:46;101586.41;;;-4.71
76541;BMP280;65385;55.772;37.658;2023-02-07T02:27:08;101587.22;;;-4.71
76541;BMP280;65385;55.772;37.658;2023-02-07T02:28:23;101581.47;;;-4.74
76541;BMP280;65385;55.772;37.658;2023-02-07T02:29:36;101587.53;;;-4.75
76541;BMP280;65385;55.772;37.658;2023-02-07T02:31:01;101584.16;;;-4.76
76541;BMP280;65385;55.772;37.658;2023-02-07T02:34:26;101583.13;;;-4.73
76541;BMP280;65385;55.772;37.658;2023-02-07T02:40:57;101590.59;;;-4.70
76541;BMP280;65385;55.772;37.658;2023-02-07T02:42:21;101594.97;;;-4.72
76541;BMP280;65385;55.772;37.658;2023-02-07T02:44:42;101589.94;;;-4.74
76541;BMP280;65385;55.772;37.658;2023-02-07T02:45:50;101595.97;;;-4.75
76541;BMP280;65385;55.772;37.658;2023-02-07T02:46:52;101589.25;;;-4.76
76541;BMP280;65385;55.772;37.658;2023-02-07T02:47:54;101604.44;;;-4.74
76541;BMP280;65385;55.772;37.658;2023-02-07T02:48:56;101596.09;;;-4.76
76541;BMP280;65385;55.772;37.658;2023-02-07T02:49:57;101607.94;;;-4.75
76541;BMP280;65385;55.772;37.658;2023-02-07T02:50:58;101610.56;;;-4.77
76541;BMP280;65385;55.772;37.658;2023-02-07T02:51:59;101608.84;;;-4.76
76541;BMP280;65385;55.772;37.658;2023-02-07T02:53:00;101613.03;;;-4.75
76541;BMP280;65385;55.772;37.658;2023-02-07T02:54:02;101610.56;;;-4.77
76541;BMP280;65385;55.772;37.658;2023-02-07T02:55:10;101609.75;;;-4.77
76541;BMP280;65385;55.772;37.658;2023-02-07T03:05:16;101611.91;;;-4.84
76541;BMP280;65385;55.772;37.658;2023-02-07T03:09:02;101613.66;;;-4.84
76541;BMP280;65385;55.772;37.658;2023-02-07T03:11:20;101622.03;;;-4.82
76541;BMP280;65385;55.772;37.658;2023-02-07T03:12:27;101615.28;;;-4.83
76541;BMP280;65385;55.772;37.658;2023-02-07T03:13:43;101621.19;;;-4.83
76541;BMP280;65385;55.772;37.658;2023-02-07T03:15:03;101627.00;;;-4.81
76541;BMP280;65385;55.772;37.658;2023-02-07T03:17:27;101633.84;;;-4.81
76541;BMP280;65385;55.772;37.658;2023-02-07T03:18:39;101633.84;;;-4.81
76541;BMP280;65385;55.772;37.658;2023-02-07T03:19:46;101635.47;;;-4.80
76541;BMP280;65385;55.772;37.658;2023-02-07T03:20:52;101639.66;;;-4.79
76541;BMP280;65385;55.772;37.658;2023-02-07T03:22:01;101635.28;;;-4.77
76541;BMP280;65385;55.772;37.658;2023-02-07T03:23:05;101647.94;;;-4.76
76541;BMP280;65385;55.772;37.658;2023-02-07T03:24:32;101644.38;;;-4.73
76541;BMP280;65385;55.772;37.658;2023-02-07T03:25:36;101655.28;;;-4.71
76541;BMP280;65385;55.772;37.658;2023-02-07T03:26:41;101664.78;;;-4.73
76541;BMP280;65385;55.772;37.658;2023-02-07T03:27:43;101659.56;;;-4.72
76541;BMP280;65385;55.772;37.658;2023-02-07T03:28:45;101659.66;;;-4.73
76541;BMP280;65385;55.772;37.658;2023-02-07T03:29:49;101661.50;;;-4.75
76541;BMP280;65385;55.772;37.658;2023-02-07T03:30:54;101664.25;;;-4.78
76541;BMP280;65385;55.772;37.658;2023-02-07T03:31:58;101669.34;;;-4.78
76541;BMP280;65385;55.772;37.658;2023-02-07T03:33:01;101665.16;;;-4.79
76541;BMP280;65385;55.772;37.658;2023-02-07T03:34:17;101672.72;;;-4.78
76541;BMP280;65385;55.772;37.658;2023-02-07T03:35:23;101670.75;;;-4.74
76541;BMP280;65385;55.772;37.658;2023-02-07T03:36:32;101670.75;;;-4.74
76541;BMP280;65385;55.772;37.658;2023-02-07T03:37:37;101676.81;;;-4.75
76541;BMP280;65385;55.772;37.658;2023-02-07T03:38:38;101670.69;;;-4.73
76541;BMP280;65385;55.772;37.658;2023-02-07T03:39:39;101680.28;;;-4.76
76541;BMP280;65385;55.772;37.658;2023-02-07T03:40:47;101672.72;;;-4.78
76541;BMP280;65385;55.772;37.658;2023-02-07T03:41:52;101674.78;;;-4.83
76541;BMP280;65385;55.772;37.658;2023-02-07T03:43:06;101682.28;;;-4.81
76541;BMP280;65385;55.772;37.658;2023-02-07T03:44:08;101681.59;;;-4.83
76541;BMP280;65385;55.772;37.658;2023-02-07T03:45:13;101683.25;;;-4.82
76541;BMP280;65385;55.772;37.658;2023-02-07T03:46:16;101687.41;;;-4.81
76541;BMP280;65385;55.772;37.658;2023-02-07T03:47:18;101682.28;;;-4.81
76541;BMP280;65385;55.772;37.658;2023-02-07T03:48:19;101685.66;;;-4.81
76541;BMP280;65385;55.772;37.658;2023-02-07T03:49:20;101682.28;;;-4.81
76541;BMP280;65385;55.772;37.658;2023-02-07T03:50:20;101694.13;;;-4.80
76541;BMP280;65385;55.772;37.658;2023-02-07T03:51:21;101699.13;;;-4.79
76541;BMP280;65385;55.772;37.658;2023-02-07T03:52:21;101692.22;;;-4.77
76541;BMP280;65385;55.772;37.658;2023-02-07T03:53:22;101700.69;;;-4.76
76541;BMP280;65385;55.772;37.658;2023-02-07T03:54:22;101699.63;;;-4.74
76541;BMP280;65385;55.772;37.658;2023-02-07T03:55:23;101706.41;;;-4.73
76541;BMP280;65385;55.772;37.658;2023-02-07T03:56:23;101697.84;;;-4.72
76541;BMP280;65385;55.772;37.658;2023-02-07T03:57:24;101705.31;;;-4.69
76541;BMP280;65385;55.772;37.658;2023-02-07T03:58:24;101709.47;;;-4.68
76541;BMP280;65385;55.772;37.658;2023-02-07T03:59:25;101708.53;;;-4.67
76541;BMP280;65385;55.772;37.658;2023-02-07T04:00:26;101716.81;;;-4.63
76541;BMP280;65385;55.772;37.658;2023-02-07T04:01:27;101709.16;;;-4.63
76541;BMP280;65385;55.772;37.658;2023-02-07T04:02:27;101713.34;;;-4.62
76541;BMP280;65385;55.772;37.658;2023-02-07T04:03:28;101711.72;;;-4.63
76541;BMP280;65385;55.772;37.658;2023-02-07T04:04:29;101706.63;;;-4.63
76541;BMP280;65385;55.772;37.658;2023-02-07T04:05:30;101709.06;;;-4.62
76541;BMP280;65385;55.772;37.658;2023-02-07T04:06:30;101712.44;;;-4.61
76541;BMP280;65385;55.772;37.658;2023-02-07T04:07:31;101721.59;;;-4.59
76541;BMP280;65385;55.772;37.658;2023-02-07T04:08:31;101719.88;;;-4.58
76541;BMP280;65385;55.772;37.658;2023-02-07T04:09:32;101720.69;;;-4.58
76541;BMP280;65385;55.772;37.658;2023-02-07T04:10:32;101718.13;;;-4.58
76541;BMP280;65385;55.772;37.658;2023-02-07T04:11:33;101717.22;;;-4.57
76541;BMP280;65385;55.772;37.658;2023-02-07T04:12:34;101720.59;;;-4.56
76541;BMP280;65385;55.772;37.658;2023-02-07T04:13:35;101724.81;;;-4.55
76541;BMP280;65385;55.772;37.658;2023-02-07T04:14:35;101728.06;;;-4.53
76541;BMP280;65385;55.772;37.658;2023-02-07T04:15:36;101738.28;;;-4.53
76541;BMP280;65385;55.772;37.658;2023-02-07T04:16:36;101733.16;;;-4.53
76541;BMP280;65385;55.772;37.658;2023-02-07T04:17:37;101733.16;;;-4.53
76541;BMP280;65385;55.772;37.658;2023-02-07T04:18:37;101736.53;;;-4.53
76541;BMP280;65385;55.772;37.658;2023-02-07T04:19:38;101737.25;;;-4.50
76541;BMP280;65385;55.772;37.658;2023-02-07T04:20:38;101732.16;;;-4.50
76541;BMP280;65385;55.772;37.658;2023-02-07T04:21:39;101727.03;;;-4.50
76541;BMP280;65385;55.772;37.658;2023-02-07T04:22:39;101743.91;;;-4.48
76541;BMP280;65385;55.772;37.658;2023-02-07T04:23:40;101735.44;;;-4.48
76541;BMP280;65385;55.772;37.658;2023-02-07T04:24:40;101738.78;;;-4.48
76541;BMP280;65385;55.772;37.658;2023-02-07T04:25:41;101729.50;;;-4.49
76541;BMP280;65385;55.772;37.658;2023-02-07T04:26:41;101741.34;;;-4.48
76541;BMP280;65385;55.772;37.658;2023-02-07T04:27:42;101737.88;;;-4.47
76541;BMP280;65385;55.772;37.658;2023-02-07T04:28:43;101742.16;;;-4.47
76541;BMP280;65385;55.772;37.658;2023-02-07T04:29:43;101741.34;;;-4.48
76541;BMP280;65385;55.772;37.658;2023-02-07T04:30:44;101743.81;;;-4.46
76541;BMP280;65385;55.772;37.658;2023-02-07T04:31:44;101736.25;;;-4.48
76541;BMP280;65385;55.772;37.658;2023-02-07T04:32:45;101749.00;;;-4.48
76541;BMP280;65385;55.772;37.658;2023-02-07T04:33:46;101747.28;;;-4.47
76541;BMP280;65385;55.772;37.658;2023-02-07T04:34:47;101742.97;;;-4.47
76541;BMP280;65385;55.772;37.658;2023-02-07T04:35:58;101759.94;;;-4.46
76541;BMP280;65385;55.772;37.658;2023-02-07T04:36:59;101757.38;;;-4.46
76541;BMP280;65385;55.772;37.658;2023-02-07T04:38:00;101757.38;;;-4.46
76541;BMP280;65385;55.772;37.658;2023-02-07T04:39:01;101762.59;;;-4.47
76541;BMP280;65385;55.772;37.658;2023-02-07T04:40:02;101760.13;;;-4.49
76541;BMP280;65385;55.772;37.658;2023-02-07T04:41:04;101762.78;;;-4.50
76541;BMP280;65385;55.772;37.658;2023-02-07T04:42:04;101763.59;;;-4.50
76541;BMP280;65385;55.772;37.658;2023-02-07T04:43:06;101762.78;;;-4.50
76541;BMP280;65385;55.772;37.658;2023-02-07T04:44:07;101766.16;;;-4.50
76541;BMP280;65385;55.772;37.658;2023-02-07T04:45:08;101768.69;;;-4.50
76541;BMP280;65385;55.772;37.658;2023-02-07T04:46:08;101769.44;;;-4.48
76541;BMP280;65385;55.772;37.658;2023-02-07T04:47:09;101773.63;;;-4.47
76541;BMP280;65385;55.772;37.658;2023-02-07T04:48:09;101776.97;;;-4.46
76541;BMP280;65385;55.772;37.658;2023-02-07T04:49:10;101773.38;;;-4.44
76541;BMP280;65385;55.772;37.658;2023-02-07T04:50:10;101768.28;;;-4.44
76541;BMP280;65385;55.772;37.658;2023-02-07T04:51:11;101771.56;;;-4.42
76541;BMP280;65385;55.772;37.658;2023-02-07T04:52:12;101773.19;;;-4.41
76541;BMP280;65385;55.772;37.658;2023-02-07T04:53:12;101774.94;;;-4.41
76541;BMP280;65385;55.772;37.658;2023-02-07T04:54:13;101779.94;;;-4.40
76541;BMP280;65385;55.772;37.658;2023-02-07T04:55:14;101780.75;;;-4.39
76541;BMP280;65385;55.772;37.658;2023-02-07T04:56:14;101784.22;;;-4.40
76541;BMP280;65385;55.772;37.658;2023-02-07T04:57:15;101783.41;;;-4.41
76541;BMP280;65385;55.772;37.658;2023-02-07T04:58:15;101793.63;;;-4.41
76541;BMP280;65385;55.772;37.658;2023-02-07T04:59:16;101795.25;;;-4.40
76541;BMP280;65385;55.772;37.658;2023-02-07T05:00:17;101786.78;;;-4.40
76541;BMP280;65385;55.772;37.658;2023-02-07T05:01:18;101789.34;;;-4.40
76541;BMP280;65385;55.772;37.658;2023-02-07T05:02:18;101793.63;;;-4.41
76541;BMP280;65385;55.772;37.658;2023-02-07T05:03:19;101798.72;;;-4.41
76541;BMP280;65385;55.772;37.658;2023-02-07T05:04:19;101794.53;;;-4.42
76541;BMP280;65385;55.772;37.658;2023-02-07T05:05:20;101802.09;;;-4.40
76541;BMP280;65385;55.772;37.658;2023-02-07T05:06:20;101808.13;;;-4.41
76541;BMP280;65385;55.772;37.658;2023-02-07T05:07:21;101801.28;;;-4.41
76541;BMP280;65385;55.772;37.658;2023-02-07T05:08:21;101808.13;;;-4.41
76541;BMP280;65385;55.772;37.658;2023-02-07T05:09:22;101807.31;;;-4.42
76541;BMP280;65385;55.772;37.658;2023-02-07T05:10:23;101807.38;;;-4.43
76541;BMP280;65385;55.772;37.658;2023-02-07T05:11:23;101809.94;;;-4.43
76541;BMP280;65385;55.772;37.658;2023-02-07T05:12:26;101810.75;;;-4.43
76541;BMP280;65385;55.772;37.658;2023-02-07T05:13:26;101809.84;;;-4.42
76541;BMP280;65385;55.772;37.658;2023-02-07T05:14:27;101814.03;;;-4.41
76541;BMP280;65385;55.772;37.658;2023-02-07T05:15:28;101812.41;;;-4.42
76541;BMP280;65385;55.772;37.658;2023-02-07T05:16:29;101826.81;;;-4.41
76541;BMP280;65385;55.772;37.658;2023-02-07T05:17:29;101816.59;;;-4.41
76541;BMP280;65385;55.772;37.658;2023-02-07T05:18:34;101814.03;;;-4.41
76541;BMP280;65385;55.772;37.658;2023-02-07T05:19:34;101813.13;;;-4.40
76541;BMP280;65385;55.772;37.658;2023-02-07T05:20:35;101815.69;;;-4.40
76541;BMP280;65385;55.772;37.658;2023-02-07T05:21:36;101818.31;;;-4.41
76541;BMP280;65385;55.772;37.658;2023-02-07T05:22:36;101822.72;;;-4.43
76541;BMP280;65385;55.772;37.658;2023-02-07T05:23:37;101820.06;;;-4.42
76541;BMP280;65385;55.772;37.658;2023-02-07T05:24:37;101832.00;;;-4.42
76541;BMP280;65385;55.772;37.658;2023-02-07T05:25:43;101826.72;;;-4.39
76541;BMP280;65385;55.772;37.658;2023-02-07T05:26:43;101831.81;;;-4.39
76541;BMP280;65385;55.772;37.658;2023-02-07T05:27:44;101836.09;;;-4.40
76541;BMP280;65385;55.772;37.658;2023-02-07T05:28:44;101828.53;;;-4.41
76541;BMP280;65385;55.772;37.658;2023-02-07T05:29:45;101826.91;;;-4.42
76541;BMP280;65385;55.772;37.658;2023-02-07T05:30:45;101834.66;;;-4.44
76541;BMP280;65385;55.772;37.658;2023-02-07T05:31:46;101835.69;;;-4.46
76541;BMP280;65385;55.772;37.658;2023-02-07T05:33:05;101839.06;;;-4.46
76541;BMP280;65385;55.772;37.658;2023-02-07T05:34:06;101843.13;;;-4.43
76541;BMP280;65385;55.772;37.658;2023-02-07T05:35:07;101839.75;;;-4.44
76541;BMP280;65385;55.772;37.658;2023-02-07T05:36:07;101839.97;;;-4.47
76541;BMP280;65385;55.772;37.658;2023-02-07T05:37:08;101840.88;;;-4.48
76541;BMP280;65385;55.772;37.658;2023-02-07T05:38:11;101845.91;;;-4.46
76541;BMP280;65385;55.772;37.658;2023-02-07T05:39:12;101848.31;;;-4.45
76541;BMP280;65385;55.772;37.658;2023-02-07T05:40:12;101840.81;;;-4.46
76541;BMP280;65385;55.772;37.658;2023-02-07T05:41:13;101845.09;;;-4.47
76541;BMP280;65385;55.772;37.658;2023-02-07T05:42:14;101846.72;;;-4.46
76541;BMP280;65385;55.772;37.658;2023-02-07T05:43:14;101849.28;;;-4.46
76541;BMP280;65385;55.772;37.658;2023-02-07T05:44:15;101847.31;;;-4.42
76541;BMP280;65385;55.772;37.658;2023-02-07T05:45:15;101839.66;;;-4.42
76541;BMP280;65385;55.772;37.658;2023-02-07T05:46:16;101841.22;;;-4.40
76541;BMP280;65385;55.772;37.658;2023-02-07T05:47:16;101847.75;;;-4.36
76541;BMP280;65385;55.772;37.658;2023-02-07T05:48:17;101847.66;;;-4.34
76541;BMP280;65385;55.772;37.658;2023-02-07T05:49:18;101842.56;;;-4.34
76541;BMP280;65385;55.772;37.658;2023-02-07T05:50:18;101854.31;;;-4.32
76541;BMP280;65385;55.772;37.658;2023-02-07T05:51:19;101847.56;;;-4.33
76541;BMP280;65385;55.772;37.658;2023-02-07T05:52:19;101855.94;;;-4.31
76541;BMP280;65385;55.772;37.658;2023-02-07T05:53:20;101859.41;;;-4.32
76541;BMP280;65385;55.772;37.658;2023-02-07T05:54:20;101854.31;;;-4.32
76541;BMP280;65385;55.772;37.658;2023-02-07T05:55:21;101861.97;;;-4.32
76541;BMP280;65385;55.772;37.658;2023-02-07T05:56:21;101866.03;;;-4.29
76541;BMP280;65385;55.772;37.658;2023-02-07T05:57:22;101863.50;;;-4.29
76541;BMP280;65385;55.772;37.658;2023-02-07T05:58:23;101864.22;;;-4.27
76541;BMP280;65385;55.772;37.658;2023-02-07T05:59:23;101870.22;;;-4.28
76541;BMP280;65385;55.772;37.658;2023-02-07T06:00:24;101870.16;;;-4.27
76541;BMP280;65385;55.772;37.658;2023-02-07T06:01:25;101860.84;;;-4.28
76541;BMP280;65385;55.772;37.658;2023-02-07T06:02:25;101859.94;;;-4.27
76541;BMP280;65385;55.772;37.658;2023-02-07T06:03:26;101862.38;;;-4.25
76541;BMP280;65385;55.772;37.658;2023-02-07T06:04:27;101859.84;;;-4.25
76541;BMP280;65385;55.772;37.658;2023-02-07T06:05:28;101859.72;;;-4.24
76541;BMP280;65385;55.772;37.658;2023-02-07T06:06:30;101862.97;;;-4.22
76541;BMP280;65385;55.772;37.658;2023-02-07T06:07:31;101860.66;;;-4.25
76541;BMP280;65385;55.772;37.658;2023-02-07T06:08:32;101868.31;;;-4.25
76541;BMP280;65385;55.772;37.658;2023-02-07T06:09:33;101867.59;;;-4.27
76541;BMP280;65385;55.772;37.658;2023-02-07T06:10:33;101869.22;;;-4.26
76541;BMP280;65385;55.772;37.658;2023-02-07T06:11:34;101874.34;;;-4.26
76541;BMP280;65385;55.772;37.658;2023-02-07T06:12:34;101875.97;;;-4.25
76541;BMP280;65385;55.772;37.658;2023-02-07T06:13:35;101872.47;;;-4.24
76541;BMP280;65385;55.772;37.658;2023-02-07T06:14:35;101868.09;;;-4.22
76541;BMP280;65385;55.772;37.658;2023-02-07T06:15:36;101885.16;;;-4.22
76541;BMP280;65385;55.772;37.658;2023-02-07T06:16:36;101880.94;;;-4.23
76541;BMP280;65385;55.772;37.658;2023-02-07T06:17:37;101889.44;;;-4.23
76541;BMP280;65385;55.772;37.658;2023-02-07T06:18:37;101882.69;;;-4.24
76541;BMP280;65385;55.772;37.658;2023-02-07T06:19:38;101884.31;;;-4.23
76541;BMP280;65385;55.772;37.658;2023-02-07T06:20:38;101883.41;;;-4.22
76541;BMP280;65385;55.772;37.658;2023-02-07T06:21:39;101887.59;;;-4.21
76541;BMP280;65385;55.772;37.658;2023-02-07T06:22:40;101886.78;;;-4.21
76541;BMP280;65385;55.772;37.658;2023-02-07T06:23:41;101884.31;;;-4.23
76541;BMP280;65385;55.772;37.658;2023-02-07T06:24:42;101887.69;;;-4.22
76541;BMP280;65385;55.772;37.658;2023-02-07T06:25:42;101893.72;;;-4.23
76541;BMP280;65385;55.772;37.658;2023-02-07T06:26:43;101886.88;;;-4.23